Time;durP1;ratioP1;P1;durP2;ratioP2;P2;SDS_P1;SDS_P2;PMS_P1;PMS_P2;Temp;Humidity;BMP_temperature;BMP_pressure;BME280_temperature;BME280_humidity;BME280_pressure;Samples;Min_cycle;Max_cycle;Signal;HPM_P1;HPM_P2
2023/04/16 00:00:34;;;;;;;3.77;1.53;;;;;;;13.03;48.72;100212.31;4897870;29;20442;-74
2023/04/16 00:03:28;;;;;;;5.75;1.50;;;;;;;13.17;48.27;100207.31;4909415;29;20822;-74
2023/04/16 00:06:23;;;;;;;2.88;0.95;;;;;;;13.12;48.19;100205.63;4910698;29;20538;-74
2023/04/16 00:09:17;;;;;;;4.30;1.45;;;;;;;13.27;47.91;100201.38;4901656;29;20079;-74
2023/04/16 00:12:12;;;;;;;5.07;1.30;;;;;;;13.25;47.73;100199.00;4897920;29;20442;-74
2023/04/16 00:15:06;;;;;;;10.73;3.03;;;;;;;13.29;47.31;100204.56;4896695;29;20036;-74
2023/04/16 00:17:59;;;;;;;7.23;1.53;;;;;;;12.83;48.78;100203.94;4897360;29;20048;-74
2023/04/16 00:20:53;;;;;;;7.75;3.42;;;;;;;12.92;49.07;100198.34;4903241;29;20059;-74
2023/04/16 00:23:45;;;;;;;10.13;3.90;;;;;;;12.67;49.62;100204.97;4898744;29;20052;-74
2023/04/16 00:26:39;;;;;;;8.25;3.72;;;;;;;12.94;49.46;100198.81;4898698;29;20433;-74
2023/04/16 00:29:34;;;;;;;4.82;2.40;;;;;;;12.88;49.97;100205.63;4901282;29;20518;-74
2023/04/16 00:32:29;;;;;;;2.85;1.70;;;;;;;12.92;49.69;100203.00;4897110;29;20051;-74
2023/04/16 00:35:21;;;;;;;6.82;1.55;;;;;;;12.75;51.27;100204.84;4901499;29;20635;-74
2023/04/16 00:38:15;;;;;;;7.13;0.80;;;;;;;13.01;49.96;100200.94;4898430;29;20052;-74
2023/04/16 00:41:10;;;;;;;3.97;1.15;;;;;;;13.12;49.28;100210.28;4902487;29;20043;-74
2023/04/16 00:44:04;;;;;;;8.07;1.33;;;;;;;12.90;49.60;100211.53;4888960;29;20051;-74
2023/04/16 00:46:59;;;;;;;3.03;1.47;;;;;;;12.75;50.06;100207.56;4925666;29;20051;-74
2023/04/16 00:49:54;;;;;;;7.05;1.40;;;;;;;12.66;50.03;100209.63;4905971;29;20055;-74
2023/04/16 00:52:50;;;;;;;3.47;1.50;;;;;;;12.56;50.43;100210.06;4897235;29;20047;-74
2023/04/16 00:55:44;;;;;;;4.78;1.85;;;;;;;12.53;50.49;100218.94;4902135;29;20047;-75
2023/04/16 00:58:39;;;;;;;0.85;0.85;;;;;;;12.64;49.87;100217.38;4902790;29;20047;-75
2023/04/16 01:01:34;;;;;;;1.67;0.90;;;;;;;12.64;50.52;100213.84;4894518;29;20048;-74
2023/04/16 01:04:29;;;;;;;2.10;1.15;;;;;;;11.49;53.03;100226.56;4888142;29;20052;-74
2023/04/16 01:07:23;;;;;;;2.25;1.20;;;;;;;11.37;53.85;100221.88;4907909;29;20056;-74
2023/04/16 01:10:18;;;;;;;2.65;0.93;;;;;;;11.18;54.81;100215.28;4897919;29;20523;-74
2023/04/16 01:13:13;;;;;;;3.13;1.20;;;;;;;11.14;54.45;100220.59;4887052;29;20052;-74
2023/04/16 01:16:07;;;;;;;3.40;1.23;;;;;;;11.60;53.68;100227.75;4902078;29;20051;-74
2023/04/16 01:19:02;;;;;;;6.27;1.50;;;;;;;12.12;52.48;100216.38;4885936;29;20520;-73
2023/04/16 01:21:56;;;;;;;4.80;2.00;;;;;;;12.28;51.40;100220.06;4897786;29;20051;-73
2023/04/16 01:24:51;;;;;;;12.13;10.88;;;;;;;12.29;51.60;100221.66;4901477;29;20048;-74
2023/04/16 01:27:46;;;;;;;2.03;1.33;;;;;;;12.31;51.41;100222.91;4897617;29;20048;-73
2023/04/16 01:30:40;;;;;;;2.07;1.50;;;;;;;12.27;50.97;100215.72;4900335;29;20043;-74
2023/04/16 01:33:41;;;;;;;3.25;2.00;;;;;;;12.13;51.92;100216.06;4900266;29;20056;-74
2023/04/16 01:36:36;;;;;;;3.90;1.08;;;;;;;12.15;51.60;100226.59;4898057;29;20052;-74
2023/04/16 01:39:32;;;;;;;2.85;1.38;;;;;;;11.62;52.23;100220.06;4901822;29;20043;-73
2023/04/16 01:42:26;;;;;;;2.92;1.23;;;;;;;11.71;52.26;100223.50;4927438;29;20043;-73
2023/04/16 01:45:21;;;;;;;3.47;0.93;;;;;;;11.12;54.60;100211.97;4896544;29;20052;-73
2023/04/16 01:48:16;;;;;;;1.00;0.67;;;;;;;11.27;54.23;100216.84;4898906;29;20044;-73
2023/04/16 01:51:10;;;;;;;3.83;1.23;;;;;;;11.63;53.14;100227.09;4904333;29;20047;-74
2023/04/16 01:54:05;;;;;;;2.50;1.30;;;;;;;11.81;52.11;100222.31;4901357;29;20047;-73
2023/04/16 01:56:59;;;;;;;5.78;2.53;;;;;;;11.81;52.49;100228.56;4897076;29;20076;-73
2023/04/16 01:59:53;;;;;;;2.78;1.23;;;;;;;12.00;51.91;100228.84;4882955;29;20052;-73
2023/04/16 02:02:48;;;;;;;3.57;1.37;;;;;;;12.11;52.00;100236.59;4898790;29;20420;-74
2023/04/16 02:05:48;;;;;;;2.53;1.27;;;;;;;12.21;51.49;100241.63;4910900;29;20519;-73
2023/04/16 02:08:43;;;;;;;9.63;1.65;;;;;;;12.25;52.07;100231.63;4896905;29;20048;-73
2023/04/16 02:11:39;;;;;;;1.55;1.10;;;;;;;12.15;52.16;100234.78;4899164;29;20067;-74
2023/04/16 02:14:34;;;;;;;2.80;1.30;;;;;;;12.22;51.56;100229.59;4882584;29;20056;-73
2023/04/16 02:17:29;;;;;;;1.67;1.20;;;;;;;12.22;51.66;100233.09;4899402;29;20779;-74
2023/04/16 02:20:36;;;;;;;4.30;1.50;;;;;;;12.19;51.96;100224.81;4897407;29;20295;-74
2023/04/16 02:23:30;;;;;;;1.40;1.20;;;;;;;12.26;51.64;100228.56;4895511;29;20048;-74
2023/04/16 02:26:25;;;;;;;3.03;1.55;;;;;;;12.08;52.14;100220.94;4906088;29;20051;-73
2023/04/16 02:29:20;;;;;;;4.43;0.93;;;;;;;12.00;51.88;100223.41;4933390;29;20052;-74
2023/04/16 02:32:18;;;;;;;11.02;1.98;;;;;;;12.05;51.81;100227.03;4915886;29;20055;-74
2023/04/16 02:35:12;;;;;;;4.20;1.80;;;;;;;12.19;51.96;100225.59;4895600;29;20051;-74
2023/04/16 02:38:07;;;;;;;2.90;1.50;;;;;;;12.11;52.94;100228.41;4911929;29;20060;-74
2023/04/16 02:41:02;;;;;;;3.90;1.30;;;;;;;12.14;52.56;100230.50;4898790;29;22346;-74
2023/04/16 02:43:57;;;;;;;7.43;2.53;;;;;;;12.16;52.00;100233.66;4906208;29;20055;-74
2023/04/16 02:46:49;;;;;;;2.97;1.80;;;;;;;12.23;51.80;100237.44;4912069;29;20795;-74
2023/04/16 02:49:44;;;;;;;3.17;1.00;;;;;;;12.27;52.07;100243.00;4896550;29;20064;-74
2023/04/16 02:52:33;;;;;;;4.20;1.60;;;;;;;12.16;52.71;100236.38;4918194;29;20047;-74
2023/04/16 02:55:28;;;;;;;4.15;1.50;;;;;;;12.08;53.12;100248.19;4896321;29;20051;-74
2023/04/16 02:58:22;;;;;;;2.67;1.42;;;;;;;12.19;52.22;100235.72;4895785;29;20528;-74
2023/04/16 03:01:17;;;;;;;2.53;1.10;;;;;;;12.13;53.00;100247.97;4896235;29;20047;-74
2023/04/16 03:04:11;;;;;;;6.32;1.30;;;;;;;12.14;53.28;100246.84;4909832;29;20416;-73
2023/04/16 03:07:01;;;;;;;6.35;1.65;;;;;;;11.76;53.16;100247.84;4900123;29;20048;-73
2023/04/16 03:09:55;;;;;;;7.00;2.50;;;;;;;11.67;53.32;100249.81;4898201;29;20543;-74
2023/04/16 03:12:50;;;;;;;1.77;1.30;;;;;;;11.63;53.84;100250.81;4911994;29;20039;-74
2023/04/16 03:15:48;;;;;;;12.52;1.48;;;;;;;11.59;53.92;100253.38;4909848;29;20409;-74
2023/04/16 03:18:43;;;;;;;3.22;1.67;;;;;;;11.31;54.80;100255.06;4899754;29;20047;-73
2023/04/16 03:21:37;;;;;;;4.45;1.77;;;;;;;11.31;55.29;100261.31;4899550;29;20047;-74
2023/04/16 03:24:32;;;;;;;2.47;1.58;;;;;;;11.36;55.00;100257.59;4903096;29;20052;-74
2023/04/16 03:27:26;;;;;;;5.37;1.03;;;;;;;11.39;54.68;100251.47;4904289;29;20043;-73
2023/04/16 03:30:21;;;;;;;3.13;1.50;;;;;;;11.57;54.05;100261.13;4899528;29;20516;-74
2023/04/16 03:33:16;;;;;;;4.67;2.50;;;;;;;11.64;53.86;100266.81;4904128;29;20063;-74
2023/04/16 03:36:10;;;;;;;4.53;1.70;;;;;;;11.27;55.55;100265.03;4904260;29;20673;-73
2023/04/16 03:39:05;;;;;;;5.90;2.07;;;;;;;11.23;55.95;100264.06;4899135;29;20051;-74
2023/04/16 03:41:59;;;;;;;6.82;3.67;;;;;;;11.28;55.40;100275.56;4893611;29;20512;-74
2023/04/16 03:44:51;;;;;;;4.60;1.23;;;;;;;11.10;55.44;100269.44;4898618;29;20178;-74
2023/04/16 03:47:47;;;;;;;5.32;1.50;;;;;;;10.99;56.15;100267.41;4901120;29;20047;-74
2023/04/16 03:50:42;;;;;;;2.42;1.23;;;;;;;11.07;55.65;100275.53;4905059;29;20051;-74
2023/04/16 03:53:36;;;;;;;9.15;2.10;;;;;;;11.03;55.84;100279.25;4925405;29;20051;-74
2023/04/16 03:56:31;;;;;;;2.72;1.77;;;;;;;11.07;56.17;100285.63;4922164;29;20043;-74
2023/04/16 03:59:26;;;;;;;3.05;1.75;;;;;;;10.88;56.78;100288.75;4897587;29;20047;-74
2023/04/16 04:02:20;;;;;;;7.97;2.08;;;;;;;10.99;56.66;100290.00;4962171;23;20059;-76
2023/04/16 04:05:13;;;;;;;4.28;1.85;;;;;;;11.04;56.08;100297.16;4915489;29;20067;-76
2023/04/16 04:08:08;;;;;;;9.15;2.22;;;;;;;11.11;56.46;100284.66;4918977;29;20055;-77
2023/04/16 04:11:02;;;;;;;5.03;1.83;;;;;;;11.01;56.33;100292.38;4916144;29;20059;-77
2023/04/16 04:13:57;;;;;;;2.17;1.30;;;;;;;11.13;55.82;100290.53;4912509;29;20047;-75
2023/04/16 04:16:52;;;;;;;2.58;1.60;;;;;;;11.00;55.81;100290.78;4911023;29;20055;-76
2023/04/16 04:19:47;;;;;;;3.90;1.23;;;;;;;11.00;56.06;100297.03;4911270;29;20051;-77
2023/04/16 04:22:41;;;;;;;4.43;1.43;;;;;;;10.98;56.16;100293.81;4899385;29;20303;-77
2023/04/16 04:25:36;;;;;;;1.77;1.20;;;;;;;11.00;56.00;100291.59;4901326;29;20052;-77
2023/04/16 04:28:31;;;;;;;2.50;1.83;;;;;;;10.84;55.71;100304.13;4915821;29;20044;-77
2023/04/16 04:31:25;;;;;;;2.47;1.58;;;;;;;10.95;56.26;100296.41;4904119;29;20043;-77
2023/04/16 04:34:20;;;;;;;3.30;1.25;;;;;;;10.92;56.22;100302.53;4910300;29;20035;-76
2023/04/16 04:37:15;;;;;;;5.30;1.85;;;;;;;10.86;55.82;100311.97;4911808;29;20051;-77
2023/04/16 04:40:07;;;;;;;1.88;1.67;;;;;;;10.60;55.24;100323.75;4892125;29;20130;-77
2023/04/16 04:43:02;;;;;;;2.58;1.42;;;;;;;10.48;55.04;100315.47;4894696;29;20051;-77
2023/04/16 04:45:56;;;;;;;4.93;2.13;;;;;;;10.10;58.15;100322.72;4910781;29;20059;-75
2023/04/16 04:48:49;;;;;;;;;;;;;;;9.68;59.61;100321.59;4921638;29;20547;-76
2023/04/16 04:51:44;;;;;;;7.15;1.80;;;;;;;10.08;58.63;100324.94;4889306;29;20323;-76
2023/04/16 04:54:40;;;;;;;4.18;2.15;;;;;;;10.34;58.04;100327.66;4899106;29;20539;-76
2023/04/16 04:57:34;;;;;;;3.00;2.28;;;;;;;10.47;57.51;100329.38;4911748;29;20047;-76
2023/04/16 05:00:29;;;;;;;3.07;1.53;;;;;;;10.39;57.43;100341.06;4907115;29;20428;-76
2023/04/16 05:03:27;;;;;;;2.72;1.48;;;;;;;10.52;56.99;100337.34;4903547;29;20055;-75
2023/04/16 05:06:21;;;;;;;3.72;2.05;;;;;;;10.51;57.48;100338.50;4905969;29;20056;-75
2023/04/16 05:09:16;;;;;;;4.05;1.77;;;;;;;10.53;57.65;100345.19;4903152;29;20117;-76
2023/04/16 05:12:08;;;;;;;3.78;1.80;;;;;;;10.61;56.89;100349.03;4903057;29;20052;-76
2023/04/16 05:15:00;;;;;;;6.53;2.53;;;;;;;10.70;57.16;100347.06;4902362;29;20048;-76
2023/04/16 05:17:55;;;;;;;10.05;2.80;;;;;;;10.53;57.85;100355.25;4913096;29;20065;-75
2023/04/16 05:20:49;;;;;;;2.40;1.47;;;;;;;9.72;60.14;100360.56;4899365;29;20040;-76
2023/04/16 05:23:44;;;;;;;4.40;2.67;;;;;;;9.84;60.29;100360.75;4897223;29;20807;-76
2023/04/16 05:26:35;;;;;;;2.70;2.22;;;;;;;10.13;59.96;100369.03;4893793;29;20531;-76
2023/04/16 05:29:25;;;;;;;8.18;1.98;;;;;;;10.36;59.44;100368.91;4897428;29;20052;-76
2023/04/16 05:32:19;;;;;;;3.97;1.92;;;;;;;10.62;59.43;100367.72;4911567;29;20528;-76
2023/04/16 05:35:14;;;;;;;3.88;1.35;;;;;;;10.67;59.26;100377.63;4905955;29;20056;-74
2023/04/16 05:38:09;;;;;;;3.43;2.00;;;;;;;10.88;58.67;100380.44;4896251;29;20408;-76
2023/04/16 05:41:03;;;;;;;3.13;2.00;;;;;;;10.99;58.57;100368.88;4912597;29;20055;-76
2023/04/16 05:43:58;;;;;;;4.10;1.90;;;;;;;11.21;57.83;100377.91;4905113;29;20051;-76
2023/04/16 05:46:50;;;;;;;4.43;1.53;;;;;;;11.26;57.83;100388.63;4913770;29;20047;-75
2023/04/16 05:49:45;;;;;;;3.63;2.10;;;;;;;11.36;57.22;100396.41;4896006;29;20051;-75
2023/04/16 05:52:39;;;;;;;2.95;1.98;;;;;;;11.36;57.43;100388.25;4903499;29;20056;-74
2023/04/16 05:55:31;;;;;;;5.68;1.77;;;;;;;11.40;57.48;100397.34;4894646;29;20535;-76
2023/04/16 05:58:25;;;;;;;3.10;2.03;;;;;;;11.54;57.17;100411.53;4899250;29;20063;-75
2023/04/16 06:01:20;;;;;;;15.10;4.17;;;;;;;11.67;57.54;100415.16;4895299;29;20048;-75
2023/04/16 06:04:12;;;;;;;21.25;7.25;;;;;;;11.82;57.40;100418.13;4893816;29;20047;-76
2023/04/16 06:07:07;;;;;;;6.30;2.10;;;;;;;12.02;56.21;100426.66;4895868;29;20071;-75
2023/04/16 06:10:01;;;;;;;3.30;2.85;;;;;;;11.97;56.19;100411.31;4902200;29;20051;-73
2023/04/16 06:12:56;;;;;;;5.27;2.23;;;;;;;12.19;56.11;100412.91;4911340;29;20064;-76
2023/04/16 06:15:48;;;;;;;5.85;2.40;;;;;;;12.32;54.30;100420.00;4895758;29;20416;-76
2023/04/16 06:18:42;;;;;;;5.63;1.93;;;;;;;12.47;53.92;100422.09;4893889;29;20055;-77
2023/04/16 06:21:37;;;;;;;2.33;1.40;;;;;;;12.63;53.51;100428.53;4896501;29;20075;-74
2023/04/16 06:24:31;;;;;;;5.47;2.57;;;;;;;12.69;53.21;100427.22;4895702;29;20043;-75
2023/04/16 06:27:26;;;;;;;4.47;2.80;;;;;;;12.86;52.06;100431.66;4892031;29;20044;-76
2023/04/16 06:30:18;;;;;;;4.78;2.92;;;;;;;12.91;52.17;100441.56;4893107;29;20055;-76
2023/04/16 06:33:13;;;;;;;6.10;3.00;;;;;;;12.80;53.09;100433.81;4902061;29;20441;-76
2023/04/16 06:36:07;;;;;;;5.70;3.53;;;;;;;12.94;52.95;100433.53;4893744;29;20047;-76
2023/04/16 06:39:02;;;;;;;4.23;2.50;;;;;;;12.93;53.25;100436.59;4909942;29;20048;-75
2023/04/16 06:41:53;;;;;;;5.13;2.97;;;;;;;12.97;53.20;100434.78;4893389;29;20046;-74
2023/04/16 06:44:48;;;;;;;7.00;2.95;;;;;;;12.84;53.19;100429.28;4908170;29;20060;-74
2023/04/16 06:47:43;;;;;;;3.70;3.00;;;;;;;13.00;52.59;100431.38;4896936;29;20044;-75
2023/04/16 06:50:37;;;;;;;7.18;3.25;;;;;;;13.09;52.52;100429.34;4897672;29;20052;-76
2023/04/16 06:53:32;;;;;;;3.08;2.13;;;;;;;13.26;52.25;100429.94;4908788;29;20126;-75
2023/04/16 06:56:26;;;;;;;3.58;2.58;;;;;;;13.26;52.13;100432.69;4895216;29;20048;-76
2023/04/16 06:59:18;;;;;;;6.93;3.30;;;;;;;13.32;51.50;100433.25;4899357;29;20621;-75
2023/04/16 07:02:13;;;;;;;3.28;2.53;;;;;;;13.45;51.31;100442.28;4898865;29;20051;-76
2023/04/16 07:05:08;;;;;;;4.78;2.42;;;;;;;13.54;51.45;100441.03;4893063;29;20068;-76
2023/04/16 07:08:00;;;;;;;11.98;3.42;;;;;;;13.70;51.09;100452.88;4896358;29;20064;-76
2023/04/16 07:10:52;;;;;;;8.13;3.05;;;;;;;13.85;51.35;100451.38;4897453;29;20053;-75
2023/04/16 07:13:47;;;;;;;5.43;3.42;;;;;;;13.83;51.75;100448.16;4909572;29;20052;-74
2023/04/16 07:16:39;;;;;;;9.48;3.00;;;;;;;14.07;51.39;100447.31;4897043;29;20048;-73
2023/04/16 07:19:31;;;;;;;5.15;2.58;;;;;;;14.29;50.56;100444.09;4899188;29;20047;-75
2023/04/16 07:22:26;;;;;;;4.90;3.23;;;;;;;14.34;50.40;100446.59;4910857;29;20052;-76
2023/04/16 07:25:20;;;;;;;4.28;2.40;;;;;;;14.35;49.17;100448.19;4906998;29;20063;-76
2023/04/16 07:28:15;;;;;;;4.20;2.47;;;;;;;14.29;50.22;100446.03;4910019;29;20531;-77
2023/04/16 07:31:09;;;;;;;6.20;2.87;;;;;;;14.45;50.20;100446.94;4903574;29;20047;-76
2023/04/16 07:34:04;;;;;;;4.20;2.58;;;;;;;14.48;50.71;100441.53;4896137;29;20055;-77
2023/04/16 07:36:56;;;;;;;3.92;2.60;;;;;;;14.68;49.88;100441.72;4895761;29;20060;-77
2023/04/16 07:39:48;;;;;;;4.17;2.77;;;;;;;14.73;49.56;100452.41;4911293;29;20047;-76
2023/04/16 07:42:43;;;;;;;6.20;3.35;;;;;;;14.88;49.89;100452.41;4910733;29;20292;-79
2023/04/16 07:45:38;;;;;;;3.75;1.98;;;;;;;14.90;49.27;100449.34;4901576;29;20051;-77
2023/04/16 07:48:33;;;;;;;5.77;2.67;;;;;;;14.97;49.42;100460.50;4914754;29;20052;-79
2023/04/16 07:51:27;;;;;;;8.80;4.00;;;;;;;15.25;48.73;100454.94;4889493;29;20288;-76
2023/04/16 07:54:19;;;;;;;7.47;4.05;;;;;;;15.14;48.32;100457.41;4909332;29;20060;-76
2023/04/16 07:57:11;;;;;;;5.23;3.17;;;;;;;15.24;48.30;100456.88;4904698;29;20051;-76
2023/04/16 08:00:03;;;;;;;5.20;3.17;;;;;;;15.32;48.17;100457.88;4912908;29;20405;-76
2023/04/16 08:03:04;;;;;;;6.35;2.92;;;;;;;15.41;48.05;100469.44;4903888;29;20060;-75
2023/04/16 08:05:56;;;;;;;8.35;3.35;;;;;;;15.59;47.36;100470.72;4904424;29;20535;-76
2023/04/16 08:08:51;;;;;;;5.45;3.58;;;;;;;15.54;47.17;100478.44;4910985;29;20051;-75
2023/04/16 08:11:45;;;;;;;5.17;2.13;;;;;;;15.68;46.64;100474.09;4921495;29;20051;-77
2023/04/16 08:14:40;;;;;;;8.27;2.97;;;;;;;15.71;46.45;100475.31;4898714;29;20276;-77
2023/04/16 08:17:34;;;;;;;8.33;2.83;;;;;;;15.75;46.45;100476.19;4914503;29;20051;-77
2023/04/16 08:20:27;;;;;;;5.95;2.85;;;;;;;15.66;46.70;100465.41;4911724;29;20048;-76
2023/04/16 08:23:21;;;;;;;11.82;3.05;;;;;;;15.86;46.19;100470.94;4898596;29;20476;-76
2023/04/16 08:26:16;;;;;;;5.32;3.03;;;;;;;16.05;45.62;100471.78;4900297;29;20056;-76
2023/04/16 08:29:10;;;;;;;7.30;3.20;;;;;;;16.19;44.53;100469.38;4898575;29;20059;-76
2023/04/16 08:32:05;;;;;;;5.97;2.90;;;;;;;16.25;44.80;100473.41;4903813;29;20304;-76
2023/04/16 08:34:59;;;;;;;7.10;3.83;;;;;;;16.20;45.19;100481.91;4891458;29;20055;-76
2023/04/16 08:37:54;;;;;;;5.00;3.25;;;;;;;16.16;44.97;100478.31;4898709;29;20060;-76
2023/04/16 08:40:49;;;;;;;6.22;3.40;;;;;;;16.35;44.70;100480.31;4898332;29;20621;-76
2023/04/16 08:43:43;;;;;;;;;;;;;;;16.39;44.28;100485.88;4910812;29;20052;-76
2023/04/16 08:46:37;;;;;;;;;;;;;;;16.54;43.80;100476.78;4911896;29;19920;-77
2023/04/16 08:49:29;;;;;;;;;;;;;;;16.64;44.03;100477.03;4900058;29;19916;-77
2023/04/16 08:52:24;;;;;;;;;;;;;;;16.75;43.81;100481.94;4900361;29;19916;-76
2023/04/16 08:55:18;;;;;;;;;;;;;;;16.91;42.84;100485.41;4898845;29;19919;-76
2023/04/16 08:58:14;;;;;;;;;;;;;;;17.07;40.91;100486.06;4899567;29;19916;-76
2023/04/16 09:01:07;;;;;;;;;;;;;;;17.09;39.83;100484.56;4883603;29;19920;-76
2023/04/16 09:03:59;;;;;;;;;;;;;;;17.20;40.08;100487.50;4898970;29;19923;-77
2023/04/16 09:06:52;;;;;;;;;;;;;;;17.28;39.11;100485.66;4905210;29;19927;-76
2023/04/16 09:09:45;;;;;;;;;;;;;;;17.41;39.25;100482.38;4891788;29;19916;-77
2023/04/16 09:12:37;;;;;;;;;;;;;;;17.49;38.97;100477.78;4912287;29;19916;-76
2023/04/16 09:15:29;;;;;;;;;;;;;;;17.60;38.32;100478.78;4912457;29;20284;-77
2023/04/16 09:18:21;;;;;;;;;;;;;;;17.60;36.40;100481.53;4900561;29;19915;-76
2023/04/16 09:21:16;;;;;;;;;;;;;;;17.69;36.15;100478.53;4910902;29;19916;-76
2023/04/16 09:24:06;;;;;;;;;;;;;;;17.75;36.43;100488.88;4901075;29;19915;-77
2023/04/16 09:26:58;;;;;;;;;;;;;;;17.83;35.60;100490.56;4894862;29;19919;-76
2023/04/16 09:29:48;;;;;;;;;;;;;;;18.01;34.14;100490.03;4881346;29;19920;-76
2023/04/16 09:32:39;;;;;;;;;;;;;;;17.99;34.61;100493.16;4906819;29;20283;-77
2023/04/16 09:35:45;;;;;;;;;;;;;;;18.19;35.16;100489.13;4895542;29;19915;-76
2023/04/16 09:38:47;;;;;;;;;;;;;;;18.28;34.06;100492.41;4911188;29;20291;-76
2023/04/16 09:41:39;;;;;;;;;;;;;;;18.34;33.66;100490.09;4898482;29;20537;-76
2023/04/16 09:44:39;;;;;;;;;;;;;;;18.37;33.39;100492.13;4907590;29;19916;-76
2023/04/16 09:47:24;;;;;;;;;;;;;;;18.46;34.05;100489.09;4897835;29;19923;-76
2023/04/16 09:50:13;;;;;;;;;;;;;;;18.45;33.66;100495.75;4894739;29;19915;-76
2023/04/16 09:53:01;;;;;;;;;;;;;;;18.45;33.14;100485.53;4883410;29;20002;-76
2023/04/16 09:55:45;;;;;;;;;;;;;;;18.46;33.25;100489.88;4910599;29;20299;-76
2023/04/16 09:58:30;;;;;;;;;;;;;;;18.45;32.21;100485.53;4905538;29;19915;-76
2023/04/16 10:01:17;;;;;;;;;;;;;;;18.46;32.55;100484.38;4905957;29;19915;-76
2023/04/16 10:04:01;;;;;;;;;;;;;;;18.54;33.32;100490.81;4935954;23;20386;-75
2023/04/16 10:07:02;;;;;;;;;;;;;;;18.59;32.98;100487.72;4931727;29;19919;-72
2023/04/16 10:09:47;;;;;;;;;;;;;;;18.70;32.24;100489.44;4932369;29;20390;-72
2023/04/16 10:12:32;;;;;;;;;;;;;;;18.84;32.01;100488.03;4932936;29;20310;-75
2023/04/16 10:15:16;;;;;;;;;;;;;;;18.83;31.82;100486.44;4901894;29;19915;-75
2023/04/16 10:18:02;;;;;;;;;;;;;;;18.94;31.56;100481.84;4917793;29;19915;-72
2023/04/16 10:20:47;;;;;;;;;;;;;;;19.03;31.58;100469.34;4909681;29;19915;-72
2023/04/16 10:23:31;;;;;;;;;;;;;;;19.01;31.09;100468.91;4914740;29;19915;-72
2023/04/16 10:26:16;;;;;;;;;;;;;;;19.16;31.40;100467.88;4909601;29;20375;-74
2023/04/16 10:29:01;;;;;;;;;;;;;;;19.25;31.30;100467.56;4910552;29;19915;-72
2023/04/16 10:31:46;;;;;;;;;;;;;;;19.16;31.30;100456.88;4915471;29;19919;-72
2023/04/16 10:34:30;;;;;;;;;;;;;;;19.32;30.96;100477.88;4913174;29;19923;-75
2023/04/16 10:37:16;;;;;;;;;;;;;;;19.33;30.87;100477.50;4916912;29;19918;-73
2023/04/16 10:40:20;;;;;;;;;;;;;;;19.36;30.17;100478.69;4909870;29;19915;-72
2023/04/16 10:43:05;;;;;;;;;;;;;;;19.39;30.94;100480.72;4905214;29;19919;-72
2023/04/16 10:45:50;;;;;;;;;;;;;;;19.42;31.05;100475.22;4915098;29;19919;-72
2023/04/16 10:48:34;;;;;;;;;;;;;;;19.53;30.77;100478.91;4905038;29;19923;-72
2023/04/16 10:51:37;;;;;;;;;;;;;;;19.66;29.43;100471.09;4914973;29;20307;-72
2023/04/16 10:54:24;;;;;;;;;;;;;;;19.81;29.19;100467.28;4914999;29;19915;-72
2023/04/16 10:57:11;;;;;;;;;;;;;;;19.85;30.03;100467.31;4915388;29;19919;-72
2023/04/16 10:59:55;;;;;;;;;;;;;;;19.81;30.25;100461.00;4913556;29;19915;-72
2023/04/16 11:02:40;;;;;;;;;;;;;;;19.85;30.49;100459.84;4913354;29;19915;-72
2023/04/16 11:05:43;;;;;;;;;;;;;;;19.79;29.12;100457.81;4915492;29;19919;-72
2023/04/16 11:08:27;;;;;;;;;;;;;;;19.87;29.79;100453.91;4915898;29;19919;-72
2023/04/16 11:11:12;;;;;;;;;;;;;;;19.98;29.04;100460.31;4910564;29;20383;-72
2023/04/16 11:13:56;;;;;;;;;;;;;;;20.09;29.43;100455.63;4910452;29;19919;-72
2023/04/16 11:16:41;;;;;;;;;;;;;;;20.20;28.97;100458.47;4909573;29;19915;-72
2023/04/16 11:19:25;;;;;;;;;;;;;;;20.25;29.25;100449.81;4904585;29;19919;-72
2023/04/16 11:22:16;;;;;;;;;;;;;;;20.18;28.99;100439.50;4904277;29;19915;-72
2023/04/16 11:25:00;;;;;;;;;;;;;;;20.10;30.05;100440.66;4905213;29;21265;-72
2023/04/16 11:27:45;;;;;;;;;;;;;;;20.11;29.43;100439.50;4911107;29;20394;-72
2023/04/16 11:30:33;;;;;;;;;;;;;;;20.21;29.02;100437.97;4904074;29;19914;-72
2023/04/16 11:33:17;;;;;;;;;;;;;;;20.23;29.52;100446.63;4914124;29;19915;-73
2023/04/16 11:36:02;;;;;;;;;;;;;;;20.27;29.97;100437.19;4913243;29;19915;-73
2023/04/16 11:38:46;;;;;;;;;;;;;;;20.33;29.95;100443.16;4914616;29;19919;-73
2023/04/16 11:41:31;;;;;;;;;;;;;;;20.40;29.98;100437.69;4914910;29;19915;-72
2023/04/16 11:44:16;;;;;;;;;;;;;;;20.42;29.74;100433.34;4925619;29;20303;-75
2023/04/16 11:47:04;;;;;;;;;;;;;;;20.42;30.66;100433.34;4907170;29;19918;-73
2023/04/16 11:49:49;;;;;;;;;;;;;;;20.35;31.06;100433.31;4918432;29;19915;-72
2023/04/16 11:52:35;;;;;;;;;;;;;;;20.35;30.48;100429.78;4908758;29;19915;-72
2023/04/16 11:55:20;;;;;;;;;;;;;;;20.34;30.42;100420.69;4913061;29;19915;-72
2023/04/16 11:58:10;;;;;;;;;;;;;;;20.21;31.26;100424.16;4924393;29;20323;-72
2023/04/16 12:00:58;;;;;;;;;;;;;;;20.36;30.69;100418.34;4914371;29;19915;-72
2023/04/16 12:03:45;;;;;;;;;;;;;;;20.37;30.98;100424.63;4914783;29;20383;-72
2023/04/16 12:06:31;;;;;;;;;;;;;;;20.37;30.35;100419.91;4910054;29;20382;-72
2023/04/16 12:09:28;;;;;;;;;;;;;;;20.30;29.98;100425.38;4910782;29;19915;-72
2023/04/16 12:12:29;;;;;;;;;;;;;;;20.27;29.98;100423.38;4914374;29;19914;-75
2023/04/16 12:15:15;;;;;;;;;;;;;;;20.34;30.81;100417.94;4910799;29;19919;-75
2023/04/16 12:18:06;;;;;;;;;;;;;;;20.41;29.63;100415.19;4906138;29;19915;-74
2023/04/16 12:20:51;;;;;;;;;;;;;;;20.41;29.93;100414.41;4912576;29;19918;-74
2023/04/16 12:23:35;;;;;;;;;;;;;;;20.28;30.17;100410.38;4914180;29;19916;-74
2023/04/16 12:26:20;;;;;;;;;;;;;;;20.26;29.82;100407.22;4911612;29;19919;-74
2023/04/16 12:29:13;;;;;;;;;;;;;;;20.37;29.68;100408.06;4912322;29;19915;-74
2023/04/16 12:31:58;;;;;;;;;;;;;;;20.39;30.15;100397.44;4913082;29;19915;-74
2023/04/16 12:34:49;;;;;;;;;;;;;;;20.46;29.55;100403.78;4912958;29;19916;-74
2023/04/16 12:37:34;;;;;;;;;;;;;;;20.46;29.29;100395.50;4903065;29;20384;-74
2023/04/16 12:40:18;;;;;;;;;;;;;;;20.48;29.89;100397.84;4909773;29;20082;-74
2023/04/16 12:43:03;;;;;;;;;;;;;;;20.33;30.03;100397.00;4912460;29;19915;-74
2023/04/16 12:45:48;;;;;;;;;;;;;;;20.29;29.91;100400.91;4916734;29;20114;-74
2023/04/16 12:48:33;;;;;;;;;;;;;;;20.45;30.55;100396.66;4916340;29;19914;-74
2023/04/16 12:51:18;;;;;;;;;;;;;;;20.54;30.76;100390.75;4921251;29;19915;-74
2023/04/16 12:54:04;;;;;;;;;;;;;;;20.67;30.82;100383.69;4917193;29;19918;-74
2023/04/16 12:56:49;;;;;;;;;;;;;;;20.76;30.44;100386.09;4917648;29;19918;-74
2023/04/16 12:59:33;;;;;;;;;;;;;;;20.83;29.86;100386.88;4917689;29;19915;-74
2023/04/16 13:02:19;;;;;;;;;;;;;;;20.83;30.15;100391.63;4915286;29;19923;-74
2023/04/16 13:05:04;;;;;;;;;;;;;;;20.86;30.05;100396.38;4910190;29;19915;-74
2023/04/16 13:07:49;;;;;;;;;;;;;;;20.80;30.61;100397.94;4901484;29;19923;-74
2023/04/16 13:10:33;;;;;;;;;;;;;;;20.58;30.71;100397.09;4914128;29;20282;-74
2023/04/16 13:13:18;;;;;;;;;;;;;;;20.61;30.67;100390.00;4910087;29;19915;-74
2023/04/16 13:16:05;;;;;;;;;;;;;;;20.37;30.75;100385.97;4910819;29;19915;-74
2023/04/16 13:18:49;;;;;;;;;;;;;;;20.30;31.01;100378.44;4910890;29;19915;-74
2023/04/16 13:21:34;;;;;;;;;;;;;;;20.25;30.94;100376.03;4914910;29;19915;-73
2023/04/16 13:24:18;;;;;;;;;;;;;;;20.40;30.73;100374.94;4916093;29;19915;-73
2023/04/16 13:27:02;;;;;;;;;;;;;;;20.47;30.32;100379.69;4908148;29;19919;-73
2023/04/16 13:29:47;;;;;;;;;;;;;;;20.43;29.69;100363.09;4918726;29;19915;-73
2023/04/16 13:32:31;;;;;;;;;;;;;;;20.57;30.23;100367.09;4907326;29;19919;-73
2023/04/16 13:35:15;;;;;;;;;;;;;;;20.57;30.54;100373.41;4908049;29;19915;-73
2023/04/16 13:38:00;;;;;;;;;;;;;;;20.55;30.62;100374.97;4920018;29;19915;-73
2023/04/16 13:40:44;;;;;;;;;;;;;;;20.46;30.77;100369.84;4916092;29;19915;-73
2023/04/16 13:43:29;;;;;;;;;;;;;;;20.28;32.02;100378.03;4916613;29;20395;-73
2023/04/16 13:46:13;;;;;;;;;;;;;;;20.25;31.47;100367.75;4917757;29;19923;-73
2023/04/16 13:48:58;;;;;;;;;;;;;;;20.20;31.31;100378.38;4896997;29;20295;-73